KMEI/MEI METAR and TAF weather

Enter ICAO airport designator
Station Type Date Time Source
KMEI METAR 2022/01/29 10:58 UTC NOAA

KMEI 291058Z AUTO 36008KT 10SM CLR M03/M12 A3036 RMK AO2 SLP282 I1020 T10281122


Station Type Date Time Source
KMEI Decoded METAR 2022/01/29 10:58 UTC NOAA

MERIDIAN KEY FIELD, MS, United States (KMEI) 32-20N 088-45W 89M
Jan 29, 2022 - 05:58 AM EST / 2022.01.29 1058 UTC
Wind: from the N (360 degrees) at 9 MPH (8 KT):0
Visibility: 10 mile(s):0
Sky conditions: clear
Temperature: 27.0 F (-2.8 C)
Windchill: 17 F (-8 C):1
Dew Point: 10.0 F (-12.2 C)
Relative Humidity: 48%
Pressure (altimeter): 30.36 in. Hg (1028 hPa)
ob: KMEI 291058Z AUTO 36008KT 10SM CLR M03/M12 A3036 RMK AO2 SLP282 I1020 T10281122
cycle: 11

Station Type Date Time Source
KMEI TAF 2022/01/29 06:30 UTC NOAA

TAF KMEI 290529Z 2906/3006 34009G20KT P6SM SKC
FM291500 36005KT P6SM SKC
FM300000 20003KT P6SM SKC

Example: see airport list